sensor_id;sensor_type;location;lat;lon;timestamp;P1;durP1;ratioP1;P2;durP2;ratioP2
1725;SDS011;41776;48.260;8.928;2023-12-29T00:00:17;3.77;;;2.20;;
1725;SDS011;41776;48.260;8.928;2023-12-29T00:02:44;3.67;;;2.03;;
1725;SDS011;41776;48.260;8.928;2023-12-29T00:05:13;2.37;;;1.70;;
1725;SDS011;41776;48.260;8.928;2023-12-29T00:07:40;3.10;;;1.83;;
1725;SDS011;41776;48.260;8.928;2023-12-29T00:10:06;2.87;;;1.83;;
1725;SDS011;41776;48.260;8.928;2023-12-29T00:12:34;3.23;;;1.80;;
1725;SDS011;41776;48.260;8.928;2023-12-29T00:15:00;4.47;;;2.17;;
1725;SDS011;41776;48.260;8.928;2023-12-29T00:17:29;2.87;;;1.97;;
1725;SDS011;41776;48.260;8.928;2023-12-29T00:19:55;2.47;;;1.70;;
1725;SDS011;41776;48.260;8.928;2023-12-29T00:22:21;4.00;;;2.10;;
1725;SDS011;41776;48.260;8.928;2023-12-29T00:24:50;8.17;;;3.10;;
1725;SDS011;41776;48.260;8.928;2023-12-29T00:27:19;3.23;;;1.80;;
1725;SDS011;41776;48.260;8.928;2023-12-29T00:29:45;2.93;;;1.90;;
1725;SDS011;41776;48.260;8.928;2023-12-29T00:32:12;2.73;;;2.10;;
1725;SDS011;41776;48.260;8.928;2023-12-29T00:34:39;2.37;;;1.80;;
1725;SDS011;41776;48.260;8.928;2023-12-29T00:37:06;2.97;;;1.90;;
1725;SDS011;41776;48.260;8.928;2023-12-29T00:39:33;3.03;;;1.90;;
1725;SDS011;41776;48.260;8.928;2023-12-29T00:42:03;3.17;;;2.03;;
1725;SDS011;41776;48.260;8.928;2023-12-29T00:44:34;4.23;;;2.07;;
1725;SDS011;41776;48.260;8.928;2023-12-29T00:47:01;6.23;;;2.20;;
1725;SDS011;41776;48.260;8.928;2023-12-29T00:49:28;3.30;;;2.40;;
1725;SDS011;41776;48.260;8.928;2023-12-29T00:51:59;3.10;;;2.07;;
1725;SDS011;41776;48.260;8.928;2023-12-29T00:54:27;3.17;;;2.03;;
1725;SDS011;41776;48.260;8.928;2023-12-29T00:56:54;5.27;;;2.30;;
1725;SDS011;41776;48.260;8.928;2023-12-29T00:59:20;2.80;;;2.20;;
1725;SDS011;41776;48.260;8.928;2023-12-29T01:01:47;4.30;;;2.30;;
1725;SDS011;41776;48.260;8.928;2023-12-29T01:04:14;3.63;;;2.17;;
1725;SDS011;41776;48.260;8.928;2023-12-29T01:06:40;3.33;;;2.30;;
1725;SDS011;41776;48.260;8.928;2023-12-29T01:09:08;3.33;;;2.43;;
1725;SDS011;41776;48.260;8.928;2023-12-29T01:11:36;4.90;;;2.67;;
1725;SDS011;41776;48.260;8.928;2023-12-29T01:14:05;3.30;;;2.23;;
1725;SDS011;41776;48.260;8.928;2023-12-29T01:16:31;5.33;;;2.20;;
1725;SDS011;41776;48.260;8.928;2023-12-29T01:18:58;4.43;;;2.40;;
1725;SDS011;41776;48.260;8.928;2023-12-29T01:21:27;5.03;;;1.90;;
1725;SDS011;41776;48.260;8.928;2023-12-29T01:23:53;4.47;;;1.73;;
1725;SDS011;41776;48.260;8.928;2023-12-29T01:26:21;3.23;;;2.10;;
1725;SDS011;41776;48.260;8.928;2023-12-29T01:28:48;3.43;;;2.33;;
1725;SDS011;41776;48.260;8.928;2023-12-29T01:31:14;3.60;;;2.10;;
1725;SDS011;41776;48.260;8.928;2023-12-29T01:33:41;3.27;;;2.17;;
1725;SDS011;41776;48.260;8.928;2023-12-29T01:36:07;3.57;;;2.10;;
1725;SDS011;41776;48.260;8.928;2023-12-29T01:38:34;3.80;;;2.60;;
1725;SDS011;41776;48.260;8.928;2023-12-29T01:41:01;3.93;;;2.50;;
1725;SDS011;41776;48.260;8.928;2023-12-29T01:43:34;4.37;;;2.23;;
1725;SDS011;41776;48.260;8.928;2023-12-29T01:46:03;4.40;;;2.10;;
1725;SDS011;41776;48.260;8.928;2023-12-29T01:48:30;3.90;;;2.00;;
1725;SDS011;41776;48.260;8.928;2023-12-29T01:50:58;3.63;;;2.37;;
1725;SDS011;41776;48.260;8.928;2023-12-29T01:53:24;4.40;;;2.40;;
1725;SDS011;41776;48.260;8.928;2023-12-29T01:55:51;4.47;;;2.80;;
1725;SDS011;41776;48.260;8.928;2023-12-29T01:58:18;4.93;;;2.27;;
1725;SDS011;41776;48.260;8.928;2023-12-29T02:00:46;3.67;;;2.10;;
1725;SDS011;41776;48.260;8.928;2023-12-29T02:03:15;4.10;;;2.07;;
1725;SDS011;41776;48.260;8.928;2023-12-29T02:05:42;2.90;;;2.20;;
1725;SDS011;41776;48.260;8.928;2023-12-29T02:08:10;3.80;;;2.70;;
1725;SDS011;41776;48.260;8.928;2023-12-29T02:10:37;4.27;;;2.27;;
1725;SDS011;41776;48.260;8.928;2023-12-29T02:13:07;4.50;;;2.13;;
1725;SDS011;41776;48.260;8.928;2023-12-29T02:15:35;6.43;;;2.50;;
1725;SDS011;41776;48.260;8.928;2023-12-29T02:18:04;7.10;;;2.20;;
1725;SDS011;41776;48.260;8.928;2023-12-29T02:20:35;2.53;;;2.00;;
1725;SDS011;41776;48.260;8.928;2023-12-29T02:23:02;4.63;;;1.93;;
1725;SDS011;41776;48.260;8.928;2023-12-29T02:25:29;4.63;;;2.10;;
1725;SDS011;41776;48.260;8.928;2023-12-29T02:27:57;3.53;;;2.10;;
1725;SDS011;41776;48.260;8.928;2023-12-29T02:30:32;5.87;;;2.17;;
1725;SDS011;41776;48.260;8.928;2023-12-29T02:33:04;2.83;;;2.10;;
1725;SDS011;41776;48.260;8.928;2023-12-29T02:35:37;3.73;;;2.40;;
1725;SDS011;41776;48.260;8.928;2023-12-29T02:38:07;3.67;;;2.03;;
1725;SDS011;41776;48.260;8.928;2023-12-29T02:40:35;5.30;;;2.53;;
1725;SDS011;41776;48.260;8.928;2023-12-29T02:43:01;2.20;;;1.67;;
1725;SDS011;41776;48.260;8.928;2023-12-29T02:45:31;3.00;;;1.90;;
1725;SDS011;41776;48.260;8.928;2023-12-29T02:47:58;3.00;;;1.97;;
1725;SDS011;41776;48.260;8.928;2023-12-29T02:50:24;3.97;;;2.00;;
1725;SDS011;41776;48.260;8.928;2023-12-29T02:52:51;2.63;;;1.80;;
1725;SDS011;41776;48.260;8.928;2023-12-29T02:55:19;5.47;;;1.70;;
1725;SDS011;41776;48.260;8.928;2023-12-29T02:57:47;4.20;;;2.20;;
1725;SDS011;41776;48.260;8.928;2023-12-29T03:00:16;3.67;;;2.27;;
1725;SDS011;41776;48.260;8.928;2023-12-29T03:02:42;4.20;;;1.97;;
1725;SDS011;41776;48.260;8.928;2023-12-29T03:05:09;2.73;;;1.90;;
1725;SDS011;41776;48.260;8.928;2023-12-29T03:07:35;2.67;;;1.80;;
1725;SDS011;41776;48.260;8.928;2023-12-29T03:10:02;3.20;;;1.50;;
1725;SDS011;41776;48.260;8.928;2023-12-29T03:12:29;2.73;;;1.80;;
1725;SDS011;41776;48.260;8.928;2023-12-29T03:14:57;2.80;;;1.90;;
1725;SDS011;41776;48.260;8.928;2023-12-29T03:17:24;3.27;;;2.00;;
1725;SDS011;41776;48.260;8.928;2023-12-29T03:19:53;3.47;;;1.83;;
1725;SDS011;41776;48.260;8.928;2023-12-29T03:22:20;2.20;;;1.50;;
1725;SDS011;41776;48.260;8.928;2023-12-29T03:24:46;2.00;;;1.67;;
1725;SDS011;41776;48.260;8.928;2023-12-29T03:27:13;4.00;;;1.97;;
1725;SDS011;41776;48.260;8.928;2023-12-29T03:29:39;2.03;;;1.70;;
1725;SDS011;41776;48.260;8.928;2023-12-29T03:32:08;4.13;;;2.20;;
1725;SDS011;41776;48.260;8.928;2023-12-29T03:34:38;2.07;;;1.53;;
1725;SDS011;41776;48.260;8.928;2023-12-29T03:37:04;5.30;;;1.90;;
1725;SDS011;41776;48.260;8.928;2023-12-29T03:39:31;2.53;;;1.77;;
1725;SDS011;41776;48.260;8.928;2023-12-29T03:42:00;2.57;;;1.80;;
1725;SDS011;41776;48.260;8.928;2023-12-29T03:44:26;3.37;;;1.90;;
1725;SDS011;41776;48.260;8.928;2023-12-29T03:46:53;4.87;;;1.83;;
1725;SDS011;41776;48.260;8.928;2023-12-29T03:49:21;2.67;;;1.80;;
1725;SDS011;41776;48.260;8.928;2023-12-29T03:51:47;4.37;;;1.80;;
1725;SDS011;41776;48.260;8.928;2023-12-29T03:54:14;5.73;;;1.70;;
1725;SDS011;41776;48.260;8.928;2023-12-29T03:56:42;2.60;;;1.93;;
1725;SDS011;41776;48.260;8.928;2023-12-29T03:59:08;2.33;;;1.90;;
1725;SDS011;41776;48.260;8.928;2023-12-29T04:01:37;2.50;;;1.70;;
1725;SDS011;41776;48.260;8.928;2023-12-29T04:04:03;3.33;;;1.77;;
1725;SDS011;41776;48.260;8.928;2023-12-29T04:06:31;4.23;;;1.90;;
1725;SDS011;41776;48.260;8.928;2023-12-29T04:08:58;3.03;;;1.70;;
1725;SDS011;41776;48.260;8.928;2023-12-29T04:11:28;3.00;;;1.87;;
1725;SDS011;41776;48.260;8.928;2023-12-29T04:13:54;2.67;;;1.60;;
1725;SDS011;41776;48.260;8.928;2023-12-29T04:16:21;2.40;;;1.50;;
1725;SDS011;41776;48.260;8.928;2023-12-29T04:18:48;4.20;;;1.80;;
1725;SDS011;41776;48.260;8.928;2023-12-29T04:21:14;2.80;;;1.60;;
1725;SDS011;41776;48.260;8.928;2023-12-29T04:23:42;3.23;;;1.70;;
1725;SDS011;41776;48.260;8.928;2023-12-29T04:26:09;2.10;;;1.70;;
1725;SDS011;41776;48.260;8.928;2023-12-29T04:28:35;2.90;;;1.60;;
1725;SDS011;41776;48.260;8.928;2023-12-29T04:31:02;2.70;;;1.67;;
1725;SDS011;41776;48.260;8.928;2023-12-29T04:33:29;4.37;;;1.77;;
1725;SDS011;41776;48.260;8.928;2023-12-29T04:35:55;1.80;;;1.60;;
1725;SDS011;41776;48.260;8.928;2023-12-29T04:38:22;1.60;;;1.40;;
1725;SDS011;41776;48.260;8.928;2023-12-29T04:40:50;2.57;;;1.70;;
1725;SDS011;41776;48.260;8.928;2023-12-29T04:43:16;2.70;;;1.87;;
1725;SDS011;41776;48.260;8.928;2023-12-29T04:45:45;4.77;;;1.80;;
1725;SDS011;41776;48.260;8.928;2023-12-29T04:48:12;2.00;;;1.60;;
1725;SDS011;41776;48.260;8.928;2023-12-29T04:50:39;4.67;;;1.80;;
1725;SDS011;41776;48.260;8.928;2023-12-29T04:53:05;3.07;;;2.00;;
1725;SDS011;41776;48.260;8.928;2023-12-29T04:55:35;2.17;;;1.53;;
1725;SDS011;41776;48.260;8.928;2023-12-29T04:58:03;2.60;;;1.67;;
1725;SDS011;41776;48.260;8.928;2023-12-29T05:00:30;2.47;;;1.60;;
1725;SDS011;41776;48.260;8.928;2023-12-29T05:02:56;2.03;;;1.60;;
1725;SDS011;41776;48.260;8.928;2023-12-29T05:05:23;1.70;;;1.50;;
1725;SDS011;41776;48.260;8.928;2023-12-29T05:07:51;3.27;;;1.30;;
1725;SDS011;41776;48.260;8.928;2023-12-29T05:10:18;3.13;;;1.70;;
1725;SDS011;41776;48.260;8.928;2023-12-29T05:12:44;3.93;;;1.50;;
1725;SDS011;41776;48.260;8.928;2023-12-29T05:15:15;1.87;;;1.57;;
1725;SDS011;41776;48.260;8.928;2023-12-29T05:17:41;2.50;;;1.43;;
1725;SDS011;41776;48.260;8.928;2023-12-29T05:20:08;2.93;;;1.47;;
1725;SDS011;41776;48.260;8.928;2023-12-29T05:22:35;1.87;;;1.70;;
1725;SDS011;41776;48.260;8.928;2023-12-29T05:25:02;1.63;;;1.50;;
1725;SDS011;41776;48.260;8.928;2023-12-29T05:27:29;2.23;;;1.50;;
1725;SDS011;41776;48.260;8.928;2023-12-29T05:29:56;2.47;;;1.50;;
1725;SDS011;41776;48.260;8.928;2023-12-29T05:32:26;1.80;;;1.57;;
1725;SDS011;41776;48.260;8.928;2023-12-29T05:34:52;2.93;;;1.50;;
1725;SDS011;41776;48.260;8.928;2023-12-29T05:37:24;1.77;;;1.37;;
1725;SDS011;41776;48.260;8.928;2023-12-29T05:39:52;1.60;;;1.30;;
1725;SDS011;41776;48.260;8.928;2023-12-29T05:42:19;1.87;;;1.40;;
1725;SDS011;41776;48.260;8.928;2023-12-29T05:44:45;1.53;;;1.40;;
1725;SDS011;41776;48.260;8.928;2023-12-29T05:47:13;3.90;;;1.50;;
1725;SDS011;41776;48.260;8.928;2023-12-29T05:49:43;1.93;;;1.50;;
1725;SDS011;41776;48.260;8.928;2023-12-29T05:52:12;1.80;;;1.40;;
1725;SDS011;41776;48.260;8.928;2023-12-29T05:54:38;2.20;;;1.67;;
1725;SDS011;41776;48.260;8.928;2023-12-29T05:57:05;1.97;;;1.40;;
1725;SDS011;41776;48.260;8.928;2023-12-29T05:59:33;1.83;;;1.50;;
1725;SDS011;41776;48.260;8.928;2023-12-29T06:02:04;1.53;;;1.40;;
1725;SDS011;41776;48.260;8.928;2023-12-29T06:04:33;1.90;;;1.70;;
1725;SDS011;41776;48.260;8.928;2023-12-29T06:07:01;2.43;;;1.40;;
1725;SDS011;41776;48.260;8.928;2023-12-29T06:09:28;3.60;;;1.70;;
1725;SDS011;41776;48.260;8.928;2023-12-29T06:11:54;2.07;;;1.47;;
1725;SDS011;41776;48.260;8.928;2023-12-29T06:14:21;3.10;;;1.37;;
1725;SDS011;41776;48.260;8.928;2023-12-29T06:16:48;2.47;;;1.60;;
1725;SDS011;41776;48.260;8.928;2023-12-29T06:19:15;3.07;;;1.67;;
1725;SDS011;41776;48.260;8.928;2023-12-29T06:21:41;4.30;;;1.27;;
1725;SDS011;41776;48.260;8.928;2023-12-29T06:24:10;2.33;;;1.50;;
1725;SDS011;41776;48.260;8.928;2023-12-29T06:26:37;1.67;;;1.17;;
1725;SDS011;41776;48.260;8.928;2023-12-29T06:29:06;2.10;;;1.40;;
1725;SDS011;41776;48.260;8.928;2023-12-29T06:31:33;3.27;;;1.43;;
1725;SDS011;41776;48.260;8.928;2023-12-29T06:33:59;2.93;;;1.10;;
1725;SDS011;41776;48.260;8.928;2023-12-29T06:36:27;4.97;;;1.63;;
1725;SDS011;41776;48.260;8.928;2023-12-29T06:38:53;3.30;;;1.40;;
1725;SDS011;41776;48.260;8.928;2023-12-29T06:41:22;2.00;;;1.43;;
1725;SDS011;41776;48.260;8.928;2023-12-29T06:43:49;1.40;;;1.03;;
1725;SDS011;41776;48.260;8.928;2023-12-29T06:46:16;1.90;;;1.40;;
1725;SDS011;41776;48.260;8.928;2023-12-29T06:48:42;1.93;;;1.30;;
1725;SDS011;41776;48.260;8.928;2023-12-29T06:51:09;2.60;;;1.40;;
1725;SDS011;41776;48.260;8.928;2023-12-29T06:53:41;1.73;;;1.20;;
1725;SDS011;41776;48.260;8.928;2023-12-29T06:56:11;1.90;;;1.10;;
1725;SDS011;41776;48.260;8.928;2023-12-29T06:58:40;2.40;;;1.50;;
1725;SDS011;41776;48.260;8.928;2023-12-29T07:01:06;2.50;;;1.60;;
1725;SDS011;41776;48.260;8.928;2023-12-29T07:03:33;1.57;;;1.33;;
1725;SDS011;41776;48.260;8.928;2023-12-29T07:06:00;1.73;;;1.27;;
1725;SDS011;41776;48.260;8.928;2023-12-29T07:08:27;2.53;;;1.57;;
1725;SDS011;41776;48.260;8.928;2023-12-29T07:10:54;1.90;;;1.40;;
1725;SDS011;41776;48.260;8.928;2023-12-29T07:13:20;2.67;;;1.30;;
1725;SDS011;41776;48.260;8.928;2023-12-29T07:15:50;1.80;;;1.30;;
1725;SDS011;41776;48.260;8.928;2023-12-29T07:18:16;1.53;;;1.40;;
1725;SDS011;41776;48.260;8.928;2023-12-29T07:20:43;2.20;;;1.47;;
1725;SDS011;41776;48.260;8.928;2023-12-29T07:23:09;2.07;;;1.20;;
1725;SDS011;41776;48.260;8.928;2023-12-29T07:25:36;1.60;;;1.30;;
1725;SDS011;41776;48.260;8.928;2023-12-29T07:28:03;1.37;;;1.20;;
1725;SDS011;41776;48.260;8.928;2023-12-29T07:30:29;12.87;;;2.83;;
1725;SDS011;41776;48.260;8.928;2023-12-29T07:32:57;3.88;;;2.10;;
1725;SDS011;41776;48.260;8.928;2023-12-29T07:35:24;4.30;;;2.70;;
1725;SDS011;41776;48.260;8.928;2023-12-29T07:37:50;6.80;;;3.63;;
1725;SDS011;41776;48.260;8.928;2023-12-29T07:40:17;4.37;;;2.33;;
1725;SDS011;41776;48.260;8.928;2023-12-29T07:42:44;2.40;;;2.10;;
1725;SDS011;41776;48.260;8.928;2023-12-29T07:45:13;9.27;;;5.57;;
1725;SDS011;41776;48.260;8.928;2023-12-29T07:47:40;3.50;;;2.70;;
1725;SDS011;41776;48.260;8.928;2023-12-29T07:50:09;1.40;;;1.30;;
1725;SDS011;41776;48.260;8.928;2023-12-29T07:52:35;1.30;;;1.20;;
1725;SDS011;41776;48.260;8.928;2023-12-29T07:55:02;1.63;;;1.40;;
1725;SDS011;41776;48.260;8.928;2023-12-29T07:57:29;1.83;;;1.13;;
1725;SDS011;41776;48.260;8.928;2023-12-29T07:59:55;1.60;;;1.40;;
1725;SDS011;41776;48.260;8.928;2023-12-29T08:02:24;1.40;;;1.20;;
1725;SDS011;41776;48.260;8.928;2023-12-29T08:04:51;2.10;;;1.50;;
1725;SDS011;41776;48.260;8.928;2023-12-29T08:07:18;1.93;;;1.50;;
1725;SDS011;41776;48.260;8.928;2023-12-29T08:09:45;3.90;;;1.43;;
1725;SDS011;41776;48.260;8.928;2023-12-29T08:12:11;1.97;;;1.30;;
1725;SDS011;41776;48.260;8.928;2023-12-29T08:14:38;1.33;;;1.20;;
1725;SDS011;41776;48.260;8.928;2023-12-29T08:17:07;1.77;;;1.23;;
1725;SDS011;41776;48.260;8.928;2023-12-29T08:19:34;1.43;;;1.10;;
1725;SDS011;41776;48.260;8.928;2023-12-29T08:22:01;1.07;;;1.03;;
1725;SDS011;41776;48.260;8.928;2023-12-29T08:24:32;0.80;;;0.80;;
1725;SDS011;41776;48.260;8.928;2023-12-29T08:26:58;1.43;;;1.17;;
1725;SDS011;41776;48.260;8.928;2023-12-29T08:29:25;1.23;;;1.10;;
1725;SDS011;41776;48.260;8.928;2023-12-29T08:31:51;1.97;;;1.50;;
1725;SDS011;41776;48.260;8.928;2023-12-29T08:34:18;2.03;;;1.50;;
1725;SDS011;41776;48.260;8.928;2023-12-29T08:36:45;1.20;;;1.03;;
1725;SDS011;41776;48.260;8.928;2023-12-29T08:39:13;4.00;;;1.20;;
1725;SDS011;41776;48.260;8.928;2023-12-29T08:41:41;1.50;;;1.20;;
1725;SDS011;41776;48.260;8.928;2023-12-29T08:44:07;2.47;;;1.60;;
1725;SDS011;41776;48.260;8.928;2023-12-29T08:46:34;3.10;;;1.70;;
1725;SDS011;41776;48.260;8.928;2023-12-29T08:49:00;8.53;;;3.17;;
1725;SDS011;41776;48.260;8.928;2023-12-29T08:51:30;11.37;;;4.37;;
1725;SDS011;41776;48.260;8.928;2023-12-29T08:53:57;3.20;;;1.80;;
1725;SDS011;41776;48.260;8.928;2023-12-29T08:56:23;1.30;;;1.00;;
1725;SDS011;41776;48.260;8.928;2023-12-29T08:58:55;2.13;;;1.10;;
1725;SDS011;41776;48.260;8.928;2023-12-29T09:01:22;1.33;;;1.00;;
1725;SDS011;41776;48.260;8.928;2023-12-29T09:03:48;1.00;;;0.90;;
1725;SDS011;41776;48.260;8.928;2023-12-29T09:06:18;1.30;;;1.07;;
1725;SDS011;41776;48.260;8.928;2023-12-29T09:08:47;2.40;;;1.00;;
1725;SDS011;41776;48.260;8.928;2023-12-29T09:11:13;0.98;;;0.90;;
1725;SDS011;41776;48.260;8.928;2023-12-29T09:13:40;3.22;;;1.13;;
1725;SDS011;41776;48.260;8.928;2023-12-29T09:16:08;1.40;;;0.90;;
1725;SDS011;41776;48.260;8.928;2023-12-29T09:18:35;1.02;;;0.93;;
1725;SDS011;41776;48.260;8.928;2023-12-29T09:21:01;2.10;;;0.90;;
1725;SDS011;41776;48.260;8.928;2023-12-29T09:23:30;1.00;;;0.90;;
1725;SDS011;41776;48.260;8.928;2023-12-29T09:25:57;1.55;;;1.08;;
1725;SDS011;41776;48.260;8.928;2023-12-29T09:28:23;1.38;;;0.98;;
1725;SDS011;41776;48.260;8.928;2023-12-29T09:30:50;0.60;;;0.60;;
1725;SDS011;41776;48.260;8.928;2023-12-29T09:33:18;1.15;;;0.80;;
1725;SDS011;41776;48.260;8.928;2023-12-29T09:35:44;1.67;;;0.80;;
1725;SDS011;41776;48.260;8.928;2023-12-29T09:38:11;3.07;;;1.03;;
1725;SDS011;41776;48.260;8.928;2023-12-29T09:40:38;1.58;;;1.05;;
1725;SDS011;41776;48.260;8.928;2023-12-29T09:43:04;1.67;;;1.00;;
1725;SDS011;41776;48.260;8.928;2023-12-29T09:45:31;0.75;;;0.70;;
1725;SDS011;41776;48.260;8.928;2023-12-29T09:48:00;0.95;;;0.75;;
1725;SDS011;41776;48.260;8.928;2023-12-29T09:50:30;1.00;;;0.90;;
1725;SDS011;41776;48.260;8.928;2023-12-29T09:52:58;1.90;;;0.80;;
1725;SDS011;41776;48.260;8.928;2023-12-29T09:55:26;1.17;;;0.90;;
1725;SDS011;41776;48.260;8.928;2023-12-29T09:57:53;1.00;;;1.00;;
1725;SDS011;41776;48.260;8.928;2023-12-29T10:00:23;1.00;;;0.90;;
1725;SDS011;41776;48.260;8.928;2023-12-29T10:02:51;1.02;;;0.85;;
1725;SDS011;41776;48.260;8.928;2023-12-29T10:05:19;1.23;;;1.00;;
1725;SDS011;41776;48.260;8.928;2023-12-29T10:07:47;1.95;;;0.90;;
1725;SDS011;41776;48.260;8.928;2023-12-29T10:10:14;1.00;;;0.88;;
1725;SDS011;41776;48.260;8.928;2023-12-29T10:12:41;0.85;;;0.85;;
1725;SDS011;41776;48.260;8.928;2023-12-29T10:15:10;1.45;;;1.10;;
1725;SDS011;41776;48.260;8.928;2023-12-29T10:17:43;0.77;;;0.77;;
1725;SDS011;41776;48.260;8.928;2023-12-29T10:20:23;2.55;;;0.90;;
1725;SDS011;41776;48.260;8.928;2023-12-29T10:23:04;1.00;;;0.90;;
1725;SDS011;41776;48.260;8.928;2023-12-29T10:25:33;2.55;;;0.95;;
1725;SDS011;41776;48.260;8.928;2023-12-29T10:28:03;1.02;;;0.93;;
1725;SDS011;41776;48.260;8.928;2023-12-29T10:30:32;1.10;;;0.93;;
1725;SDS011;41776;48.260;8.928;2023-12-29T10:32:59;1.00;;;0.90;;
1725;SDS011;41776;48.260;8.928;2023-12-29T10:35:28;1.00;;;0.95;;
1725;SDS011;41776;48.260;8.928;2023-12-29T10:38:01;1.52;;;0.93;;
1725;SDS011;41776;48.260;8.928;2023-12-29T10:40:34;1.50;;;1.10;;
1725;SDS011;41776;48.260;8.928;2023-12-29T10:43:01;1.25;;;1.00;;
1725;SDS011;41776;48.260;8.928;2023-12-29T10:45:31;1.40;;;1.00;;
1725;SDS011;41776;48.260;8.928;2023-12-29T10:48:01;1.77;;;1.00;;
1725;SDS011;41776;48.260;8.928;2023-12-29T10:50:28;1.17;;;1.05;;
1725;SDS011;41776;48.260;8.928;2023-12-29T10:55:50;1.20;;;1.10;;
1725;SDS011;41776;48.260;8.928;2023-12-29T10:58:16;1.98;;;0.93;;
1725;SDS011;41776;48.260;8.928;2023-12-29T11:00:44;1.05;;;0.75;;
1725;SDS011;41776;48.260;8.928;2023-12-29T11:03:12;2.75;;;0.80;;
1725;SDS011;41776;48.260;8.928;2023-12-29T11:05:41;1.05;;;0.90;;
1725;SDS011;41776;48.260;8.928;2023-12-29T11:08:14;1.13;;;1.00;;
1725;SDS011;41776;48.260;8.928;2023-12-29T11:10:41;1.40;;;1.23;;
1725;SDS011;41776;48.260;8.928;2023-12-29T11:13:10;1.00;;;0.90;;
1725;SDS011;41776;48.260;8.928;2023-12-29T11:15:38;1.10;;;0.80;;
1725;SDS011;41776;48.260;8.928;2023-12-29T11:18:09;1.73;;;1.02;;
1725;SDS011;41776;48.260;8.928;2023-12-29T11:20:39;1.40;;;1.00;;
1725;SDS011;41776;48.260;8.928;2023-12-29T11:23:07;1.10;;;1.00;;
1725;SDS011;41776;48.260;8.928;2023-12-29T11:25:36;2.83;;;1.00;;
1725;SDS011;41776;48.260;8.928;2023-12-29T11:28:04;2.65;;;1.48;;
1725;SDS011;41776;48.260;8.928;2023-12-29T11:30:38;2.25;;;1.48;;
1725;SDS011;41776;48.260;8.928;2023-12-29T11:33:06;1.35;;;1.25;;
1725;SDS011;41776;48.260;8.928;2023-12-29T11:35:37;1.77;;;1.25;;
1725;SDS011;41776;48.260;8.928;2023-12-29T11:38:14;1.43;;;1.10;;
1725;SDS011;41776;48.260;8.928;2023-12-29T11:40:52;1.20;;;1.00;;
1725;SDS011;41776;48.260;8.928;2023-12-29T11:43:28;1.20;;;1.10;;
1725;SDS011;41776;48.260;8.928;2023-12-29T11:45:56;2.95;;;1.35;;
1725;SDS011;41776;48.260;8.928;2023-12-29T11:51:26;2.00;;;1.55;;
1725;SDS011;41776;48.260;8.928;2023-12-29T11:53:54;5.55;;;2.20;;
1725;SDS011;41776;48.260;8.928;2023-12-29T11:56:20;3.80;;;2.03;;
1725;SDS011;41776;48.260;8.928;2023-12-29T11:58:47;5.80;;;2.77;;
1725;SDS011;41776;48.260;8.928;2023-12-29T12:01:15;3.03;;;1.50;;
1725;SDS011;41776;48.260;8.928;2023-12-29T12:03:59;9.35;;;1.70;;
1725;SDS011;41776;48.260;8.928;2023-12-29T12:06:36;3.00;;;1.70;;
1725;SDS011;41776;48.260;8.928;2023-12-29T12:09:15;1.45;;;1.17;;
1725;SDS011;41776;48.260;8.928;2023-12-29T12:11:42;1.30;;;1.20;;
1725;SDS011;41776;48.260;8.928;2023-12-29T12:14:09;2.83;;;1.15;;
1725;SDS011;41776;48.260;8.928;2023-12-29T12:16:50;2.28;;;1.42;;
1725;SDS011;41776;48.260;8.928;2023-12-29T12:19:19;2.38;;;1.65;;
1725;SDS011;41776;48.260;8.928;2023-12-29T12:21:46;3.63;;;1.95;;
1725;SDS011;41776;48.260;8.928;2023-12-29T12:24:14;2.05;;;1.45;;
1725;SDS011;41776;48.260;8.928;2023-12-29T12:26:44;2.22;;;1.30;;
1725;SDS011;41776;48.260;8.928;2023-12-29T12:29:10;1.88;;;1.45;;
1725;SDS011;41776;48.260;8.928;2023-12-29T12:31:52;2.90;;;1.83;;
1725;SDS011;41776;48.260;8.928;2023-12-29T12:34:19;2.42;;;1.27;;
1725;SDS011;41776;48.260;8.928;2023-12-29T12:36:49;1.83;;;1.15;;
1725;SDS011;41776;48.260;8.928;2023-12-29T12:39:16;4.30;;;2.07;;
1725;SDS011;41776;48.260;8.928;2023-12-29T12:41:43;4.05;;;1.70;;
1725;SDS011;41776;48.260;8.928;2023-12-29T12:44:11;3.70;;;1.83;;
1725;SDS011;41776;48.260;8.928;2023-12-29T12:46:39;2.33;;;1.40;;
1725;SDS011;41776;48.260;8.928;2023-12-29T12:49:09;1.80;;;1.05;;
1725;SDS011;41776;48.260;8.928;2023-12-29T12:51:35;1.20;;;1.10;;
1725;SDS011;41776;48.260;8.928;2023-12-29T12:54:02;3.03;;;1.13;;
1725;SDS011;41776;48.260;8.928;2023-12-29T12:56:29;2.20;;;1.30;;
1725;SDS011;41776;48.260;8.928;2023-12-29T12:58:57;2.17;;;1.10;;
1725;SDS011;41776;48.260;8.928;2023-12-29T13:01:24;2.22;;;1.27;;
1725;SDS011;41776;48.260;8.928;2023-12-29T13:03:51;2.70;;;1.30;;
1725;SDS011;41776;48.260;8.928;2023-12-29T13:06:20;2.10;;;1.30;;
1725;SDS011;41776;48.260;8.928;2023-12-29T13:08:48;2.13;;;1.00;;
1725;SDS011;41776;48.260;8.928;2023-12-29T13:11:18;1.77;;;1.23;;
1725;SDS011;41776;48.260;8.928;2023-12-29T13:13:47;1.40;;;1.20;;
1725;SDS011;41776;48.260;8.928;2023-12-29T13:16:13;3.57;;;1.23;;
1725;SDS011;41776;48.260;8.928;2023-12-29T13:18:40;1.77;;;1.13;;
1725;SDS011;41776;48.260;8.928;2023-12-29T13:21:07;6.93;;;1.38;;
1725;SDS011;41776;48.260;8.928;2023-12-29T13:23:35;1.88;;;1.48;;
1725;SDS011;41776;48.260;8.928;2023-12-29T13:26:04;1.73;;;1.10;;
1725;SDS011;41776;48.260;8.928;2023-12-29T13:28:33;0.85;;;0.73;;
1725;SDS011;41776;48.260;8.928;2023-12-29T13:31:01;1.20;;;1.10;;
1725;SDS011;41776;48.260;8.928;2023-12-29T13:33:30;1.13;;;1.02;;
1725;SDS011;41776;48.260;8.928;2023-12-29T13:36:04;1.60;;;1.00;;
1725;SDS011;41776;48.260;8.928;2023-12-29T13:38:37;3.92;;;1.10;;
1725;SDS011;41776;48.260;8.928;2023-12-29T13:41:09;3.10;;;1.20;;
1725;SDS011;41776;48.260;8.928;2023-12-29T13:43:38;1.52;;;0.93;;
1725;SDS011;41776;48.260;8.928;2023-12-29T13:46:07;4.28;;;1.30;;
1725;SDS011;41776;48.260;8.928;2023-12-29T13:48:35;3.63;;;1.10;;
1725;SDS011;41776;48.260;8.928;2023-12-29T13:51:02;2.20;;;1.10;;
1725;SDS011;41776;48.260;8.928;2023-12-29T13:53:29;3.90;;;1.40;;
1725;SDS011;41776;48.260;8.928;2023-12-29T13:56:06;3.53;;;1.93;;
1725;SDS011;41776;48.260;8.928;2023-12-29T13:58:32;3.00;;;1.20;;
1725;SDS011;41776;48.260;8.928;2023-12-29T14:00:58;1.88;;;1.10;;
1725;SDS011;41776;48.260;8.928;2023-12-29T14:03:27;1.20;;;1.10;;
1725;SDS011;41776;48.260;8.928;2023-12-29T14:05:59;1.80;;;1.10;;
1725;SDS011;41776;48.260;8.928;2023-12-29T14:08:26;7.72;;;1.83;;
1725;SDS011;41776;48.260;8.928;2023-12-29T14:10:59;4.50;;;1.73;;
1725;SDS011;41776;48.260;8.928;2023-12-29T14:13:27;2.72;;;1.70;;
1725;SDS011;41776;48.260;8.928;2023-12-29T14:15:54;1.65;;;1.20;;
1725;SDS011;41776;48.260;8.928;2023-12-29T14:18:42;3.80;;;1.70;;
1725;SDS011;41776;48.260;8.928;2023-12-29T14:21:22;2.47;;;1.60;;
1725;SDS011;41776;48.260;8.928;2023-12-29T14:26:41;3.67;;;1.70;;
1725;SDS011;41776;48.260;8.928;2023-12-29T14:29:12;14.35;;;4.75;;
1725;SDS011;41776;48.260;8.928;2023-12-29T14:31:39;4.82;;;1.80;;
1725;SDS011;41776;48.260;8.928;2023-12-29T14:34:08;4.50;;;1.40;;
1725;SDS011;41776;48.260;8.928;2023-12-29T14:36:36;6.67;;;2.60;;
1725;SDS011;41776;48.260;8.928;2023-12-29T14:39:03;3.33;;;1.67;;
1725;SDS011;41776;48.260;8.928;2023-12-29T14:41:31;7.15;;;2.92;;
1725;SDS011;41776;48.260;8.928;2023-12-29T14:43:58;2.00;;;1.33;;
1725;SDS011;41776;48.260;8.928;2023-12-29T14:46:26;2.60;;;1.67;;
1725;SDS011;41776;48.260;8.928;2023-12-29T14:48:53;2.85;;;1.95;;
1725;SDS011;41776;48.260;8.928;2023-12-29T14:51:20;1.70;;;1.15;;
1725;SDS011;41776;48.260;8.928;2023-12-29T14:53:47;4.97;;;1.83;;
1725;SDS011;41776;48.260;8.928;2023-12-29T14:56:15;2.13;;;1.15;;
1725;SDS011;41776;48.260;8.928;2023-12-29T14:58:45;2.97;;;1.53;;
1725;SDS011;41776;48.260;8.928;2023-12-29T15:01:13;2.17;;;1.40;;
1725;SDS011;41776;48.260;8.928;2023-12-29T15:03:41;1.77;;;1.10;;
1725;SDS011;41776;48.260;8.928;2023-12-29T15:06:08;2.63;;;1.10;;
1725;SDS011;41776;48.260;8.928;2023-12-29T15:08:34;2.03;;;1.50;;
1725;SDS011;41776;48.260;8.928;2023-12-29T15:11:02;2.13;;;1.47;;
1725;SDS011;41776;48.260;8.928;2023-12-29T15:13:29;4.50;;;2.07;;